Time;durP1;ratioP1;P1;durP2;ratioP2;P2;SDS_P1;SDS_P2;PMS_P1;PMS_P2;Temp;Humidity;BMP_temperature;BMP_pressure;BME280_temperature;BME280_humidity;BME280_pressure;Samples;Min_cycle;Max_cycle;Signal;HPM_P1;HPM_P2
2023/08/17 00:02:13;;;;;;;2.08;1.20;;;16.20;99.90;;;;;;4827979;29;20037;-60
2023/08/17 00:04:40;;;;;;;1.35;1.25;;;16.20;99.90;;;;;;4825877;29;20126;-63
2023/08/17 00:07:07;;;;;;;2.13;1.00;;;16.20;99.90;;;;;;4825907;29;20054;-63
2023/08/17 00:09:34;;;;;;;2.00;1.45;;;16.20;99.90;;;;;;4823312;29;20585;-68
2023/08/17 00:12:01;;;;;;;1.65;1.55;;;16.10;99.90;;;;;;4820972;29;20074;-68
2023/08/17 00:14:29;;;;;;;1.33;1.05;;;16.20;99.90;;;;;;4824288;29;20042;-66
2023/08/17 00:16:56;;;;;;;2.67;1.50;;;16.20;99.90;;;;;;4822181;29;20439;-64
2023/08/17 00:19:23;;;;;;;1.40;0.90;;;16.20;99.90;;;;;;4822306;29;20168;-62
2023/08/17 00:21:51;;;;;;;1.75;1.40;;;16.20;99.90;;;;;;4826012;29;20054;-61
2023/08/17 00:24:18;;;;;;;2.90;1.55;;;16.20;99.90;;;;;;4826298;29;20099;-63
2023/08/17 00:26:45;;;;;;;0.77;0.75;;;16.20;99.90;;;;;;4822142;29;20099;-64
2023/08/17 00:29:12;;;;;;;1.40;1.02;;;16.20;99.90;;;;;;4829305;29;20106;-64
2023/08/17 00:31:39;;;;;;;1.42;1.00;;;16.30;99.90;;;;;;4829476;29;20738;-65
2023/08/17 00:34:06;;;;;;;2.00;1.08;;;16.40;99.90;;;;;;4820481;29;20054;-65
2023/08/17 00:36:33;;;;;;;1.00;1.00;;;16.40;99.90;;;;;;4825188;29;20046;-65
2023/08/17 00:39:01;;;;;;;0.85;0.85;;;16.50;99.90;;;;;;4826294;29;20820;-65
2023/08/17 00:41:28;;;;;;;0.95;0.80;;;16.50;99.90;;;;;;4823759;29;20062;-62
2023/08/17 00:43:55;;;;;;;1.75;0.57;;;16.50;99.90;;;;;;4818782;29;20045;-63
2023/08/17 00:46:24;;;;;;;2.50;0.70;;;16.40;99.90;;;;;;4823966;29;20054;-67
2023/08/17 00:48:52;;;;;;;2.33;0.90;;;16.40;99.90;;;;;;4812013;29;20544;-65
2023/08/17 00:51:20;;;;;;;2.65;0.68;;;16.40;99.90;;;;;;4820067;29;20126;-67
2023/08/17 00:53:47;;;;;;;3.45;1.73;;;16.40;99.90;;;;;;4821561;29;20565;-64
2023/08/17 00:56:14;;;;;;;0.95;0.93;;;16.40;99.90;;;;;;4825982;29;20057;-62
2023/08/17 00:58:42;;;;;;;0.70;0.70;;;16.40;99.90;;;;;;4825451;29;20085;-67
2023/08/17 01:01:09;;;;;;;0.82;0.75;;;16.30;99.90;;;;;;4826671;29;20054;-63
2023/08/17 01:03:40;;;;;;;0.68;0.68;;;16.30;99.90;;;;;;4822460;29;20077;-65
2023/08/17 01:06:08;;;;;;;1.67;0.90;;;16.20;99.90;;;;;;4825455;29;20053;-66
2023/08/17 01:08:36;;;;;;;1.25;1.15;;;16.10;99.90;;;;;;4824390;29;20077;-64
2023/08/17 01:11:18;;;;;;;2.63;1.10;;;16.10;99.90;;;;;;4823179;29;20438;-61
2023/08/17 01:13:55;;;;;;;1.85;1.10;;;16.00;99.90;;;;;;4821428;29;20038;-67
2023/08/17 01:16:34;;;;;;;2.55;0.77;;;15.90;99.90;;;;;;4828846;29;20054;-62
2023/08/17 01:19:07;;;;;;;0.90;0.90;;;15.90;99.90;;;;;;4821852;29;20054;-62
2023/08/17 01:21:49;;;;;;;0.90;0.90;;;15.80;99.90;;;;;;4824459;29;20111;-65
2023/08/17 01:24:16;;;;;;;2.47;1.42;;;15.70;99.90;;;;;;4826367;29;20119;-63
2023/08/17 01:26:43;;;;;;;2.22;1.25;;;15.60;99.90;;;;;;4820718;29;20046;-65
2023/08/17 01:29:11;;;;;;;2.20;0.70;;;15.60;99.90;;;;;;4826318;29;20065;-62
2023/08/17 01:31:54;;;;;;;1.98;0.70;;;15.60;99.90;;;;;;4823848;29;20053;-68
2023/08/17 01:34:23;;;;;;;0.70;0.70;;;15.50;99.90;;;;;;4820245;29;20495;-67
2023/08/17 01:36:55;;;;;;;1.15;0.82;;;15.50;99.90;;;;;;4816660;29;20061;-68
2023/08/17 01:39:30;;;;;;;1.60;0.68;;;15.40;99.90;;;;;;4821326;29;20054;-62
2023/08/17 01:42:00;;;;;;;2.05;1.63;;;15.40;99.90;;;;;;4818817;29;20066;-66
2023/08/17 01:44:27;;;;;;;1.02;0.80;;;15.30;99.90;;;;;;4824642;29;20505;-61
2023/08/17 01:46:54;;;;;;;1.30;1.20;;;15.30;99.90;;;;;;4817962;29;20313;-65
2023/08/17 01:49:22;;;;;;;3.00;2.25;;;15.30;99.90;;;;;;4809374;29;20420;-64
2023/08/17 01:51:49;;;;;;;1.33;1.02;;;15.20;99.90;;;;;;4827299;29;20133;-64
2023/08/17 01:54:16;;;;;;;2.42;0.85;;;15.20;99.90;;;;;;4824901;29;20046;-68
2023/08/17 01:56:42;;;;;;;1.58;1.38;;;15.20;99.90;;;;;;4820399;29;20139;-63
2023/08/17 01:59:09;;;;;;;1.55;1.45;;;15.20;99.90;;;;;;4819904;29;20496;-63
2023/08/17 02:01:37;;;;;;;2.03;1.10;;;15.10;99.90;;;;;;4827529;29;20062;-64
2023/08/17 02:04:04;;;;;;;1.25;1.05;;;15.10;99.90;;;;;;4822894;29;20054;-66
2023/08/17 02:06:31;;;;;;;1.10;1.05;;;15.10;99.90;;;;;;4825898;29;20254;-60
2023/08/17 02:08:59;;;;;;;2.35;1.42;;;15.10;99.90;;;;;;4824678;29;20573;-65
2023/08/17 02:11:26;;;;;;;2.15;1.38;;;15.10;99.90;;;;;;4827325;29;20561;-68
2023/08/17 02:13:53;;;;;;;2.03;1.13;;;15.10;99.90;;;;;;4825397;29;20060;-67
2023/08/17 02:16:20;;;;;;;1.38;1.25;;;15.00;99.90;;;;;;4826623;29;20050;-63
2023/08/17 02:18:48;;;;;;;1.40;1.02;;;15.10;99.90;;;;;;4821654;29;20082;-64
2023/08/17 02:21:15;;;;;;;2.97;1.20;;;15.00;99.90;;;;;;4825719;29;20065;-67
2023/08/17 02:23:42;;;;;;;1.60;1.20;;;15.10;99.90;;;;;;4825417;29;20477;-65
2023/08/17 02:26:09;;;;;;;1.88;1.23;;;15.10;99.90;;;;;;4829676;29;20053;-68
2023/08/17 02:28:36;;;;;;;1.75;1.58;;;15.00;99.90;;;;;;4825541;29;20290;-64
2023/08/17 02:31:06;;;;;;;3.88;2.72;;;15.10;99.90;;;;;;4827551;29;20054;-65
2023/08/17 02:33:33;;;;;;;1.42;1.10;;;15.00;99.90;;;;;;4816460;29;20492;-65
2023/08/17 02:36:01;;;;;;;1.58;1.42;;;15.00;99.90;;;;;;4828473;29;20057;-62
2023/08/17 02:38:28;;;;;;;1.45;1.30;;;15.10;99.90;;;;;;4823119;29;20150;-62
2023/08/17 02:40:55;;;;;;;1.65;1.17;;;15.10;99.90;;;;;;4825822;29;20057;-65
2023/08/17 02:43:22;;;;;;;3.63;1.75;;;15.10;99.90;;;;;;4824699;29;20045;-64
2023/08/17 02:45:50;;;;;;;1.83;1.48;;;15.30;99.90;;;;;;4810768;29;20572;-69
2023/08/17 02:48:17;;;;;;;1.95;1.35;;;15.30;99.90;;;;;;4820543;29;20145;-67
2023/08/17 02:50:44;;;;;;;3.20;1.92;;;15.30;99.90;;;;;;4825489;29;20640;-64
2023/08/17 02:53:11;;;;;;;5.75;1.67;;;15.30;99.90;;;;;;4823458;29;20331;-65
2023/08/17 02:55:38;;;;;;;3.25;1.50;;;15.40;99.90;;;;;;4813445;29;20451;-61
2023/08/17 02:58:07;;;;;;;1.90;1.33;;;15.40;99.90;;;;;;4817172;29;20102;-60
2023/08/17 03:00:34;;;;;;;3.65;1.67;;;15.50;99.90;;;;;;4826294;29;20053;-67
2023/08/17 03:03:01;;;;;;;2.10;1.90;;;15.50;99.90;;;;;;4823175;29;20101;-61
2023/08/17 03:05:28;;;;;;;3.47;2.78;;;15.50;99.90;;;;;;4824151;29;20053;-66
2023/08/17 03:07:55;;;;;;;1.65;1.55;;;15.50;99.90;;;;;;4828265;29;20054;-62
2023/08/17 03:10:24;;;;;;;2.00;1.70;;;15.50;99.90;;;;;;4823408;29;20469;-61
2023/08/17 03:12:52;;;;;;;2.87;1.83;;;15.60;99.90;;;;;;4824109;29;20884;-62
2023/08/17 03:15:19;;;;;;;1.30;1.20;;;15.60;99.90;;;;;;4824931;29;20412;-68
2023/08/17 03:17:46;;;;;;;2.67;1.80;;;15.60;99.90;;;;;;4824737;29;20073;-67
2023/08/17 03:20:13;;;;;;;1.52;1.35;;;15.60;99.90;;;;;;4821243;29;20049;-68
2023/08/17 03:22:40;;;;;;;4.00;1.90;;;15.60;99.90;;;;;;4819739;29;20834;-62
2023/08/17 03:25:07;;;;;;;2.08;1.17;;;15.60;99.90;;;;;;4825914;29;20038;-66
2023/08/17 03:27:34;;;;;;;3.75;1.30;;;15.60;99.90;;;;;;4828365;29;20066;-68
2023/08/17 03:30:04;;;;;;;3.50;1.55;;;15.60;99.90;;;;;;4821733;29;20066;-65
2023/08/17 03:32:31;;;;;;;4.97;1.52;;;15.60;99.90;;;;;;4814933;29;20053;-61
2023/08/17 03:34:57;;;;;;;4.20;1.73;;;15.60;99.90;;;;;;4824847;29;20049;-62
2023/08/17 03:37:24;;;;;;;2.10;1.48;;;15.60;99.90;;;;;;4825407;29;20065;-62
2023/08/17 03:39:52;;;;;;;1.95;1.85;;;15.60;99.90;;;;;;4809759;29;20668;-65
2023/08/17 03:42:19;;;;;;;1.95;1.23;;;15.60;99.90;;;;;;4825299;29;20480;-68
2023/08/17 03:44:46;;;;;;;3.53;1.80;;;15.60;99.90;;;;;;4822088;29;20067;-67
2023/08/17 03:47:14;;;;;;;2.83;1.70;;;15.60;99.90;;;;;;4824099;29;20046;-68
2023/08/17 03:49:41;;;;;;;2.75;1.63;;;15.70;99.90;;;;;;4828762;29;20042;-62
2023/08/17 03:52:08;;;;;;;2.85;1.65;;;15.70;99.90;;;;;;4824347;29;20778;-65
2023/08/17 03:54:35;;;;;;;1.75;1.55;;;15.70;99.90;;;;;;4818941;29;20100;-62
2023/08/17 03:57:02;;;;;;;2.00;1.42;;;15.70;99.90;;;;;;4822473;29;20082;-64
2023/08/17 03:59:29;;;;;;;2.53;2.33;;;15.70;99.90;;;;;;4818346;29;20107;-61
2023/08/17 04:01:56;;;;;;;3.05;1.30;;;15.70;99.90;;;;;;4823357;29;20050;-70
2023/08/17 04:04:25;;;;;;;1.50;1.33;;;15.70;99.90;;;;;;4825678;29;20665;-62
2023/08/17 04:06:52;;;;;;;2.58;1.58;;;15.70;99.90;;;;;;4808733;29;20177;-61
2023/08/17 04:09:19;;;;;;;1.75;1.33;;;15.70;99.90;;;;;;4815140;29;20489;-69
2023/08/17 04:11:46;;;;;;;2.05;1.40;;;15.70;99.90;;;;;;4812335;29;20110;-65
2023/08/17 04:14:13;;;;;;;1.55;1.45;;;15.70;99.90;;;;;;4820346;29;20126;-62
2023/08/17 04:16:41;;;;;;;3.08;1.90;;;15.70;99.90;;;;;;4822901;29;20153;-65
2023/08/17 04:19:08;;;;;;;3.70;1.60;;;15.70;99.90;;;;;;4825631;29;20054;-65
2023/08/17 04:21:35;;;;;;;4.07;2.13;;;15.80;99.90;;;;;;4826237;29;20061;-64
2023/08/17 04:24:03;;;;;;;4.95;2.08;;;15.80;99.90;;;;;;4824195;29;20140;-61
2023/08/17 04:26:30;;;;;;;3.53;1.95;;;15.80;99.90;;;;;;4822465;29;20535;-65
2023/08/17 04:28:56;;;;;;;2.13;1.75;;;15.80;99.90;;;;;;4828439;29;20090;-64
2023/08/17 04:31:23;;;;;;;1.98;1.20;;;15.90;99.90;;;;;;4824396;29;20482;-63
2023/08/17 04:33:57;;;;;;;3.00;1.90;;;15.90;99.90;;;;;;4823849;29;20520;-64
2023/08/17 04:36:24;;;;;;;3.80;3.08;;;16.00;99.90;;;;;;4827166;29;20144;-72
2023/08/17 04:38:53;;;;;;;4.13;2.00;;;16.10;99.90;;;;;;4813569;29;20077;-65
2023/08/17 04:41:20;;;;;;;4.20;1.63;;;16.10;99.90;;;;;;4806705;29;20056;-62
2023/08/17 04:43:49;;;;;;;1.77;1.60;;;16.10;99.90;;;;;;4820838;29;20073;-65
2023/08/17 04:46:16;;;;;;;2.50;1.77;;;16.20;99.90;;;;;;4827182;29;20058;-68
2023/08/17 04:48:43;;;;;;;2.47;2.17;;;16.20;99.90;;;;;;4808658;29;20192;-63
2023/08/17 04:51:11;;;;;;;4.38;1.52;;;16.20;99.90;;;;;;4808068;29;20046;-68
2023/08/17 04:53:40;;;;;;;4.07;1.50;;;16.30;99.90;;;;;;4822922;29;20150;-64
2023/08/17 04:56:08;;;;;;;1.67;1.58;;;16.30;99.90;;;;;;4815649;29;20293;-62
2023/08/17 04:58:35;;;;;;;2.42;2.10;;;16.30;99.90;;;;;;4817140;29;20058;-70
2023/08/17 05:01:02;;;;;;;2.80;1.42;;;16.30;99.90;;;;;;4812531;29;20064;-65
2023/08/17 05:03:29;;;;;;;3.15;1.90;;;16.40;99.90;;;;;;4822236;29;20052;-61
2023/08/17 05:06:00;;;;;;;1.95;1.38;;;16.40;99.90;;;;;;4822442;29;20065;-61
2023/08/17 05:08:27;;;;;;;1.98;1.45;;;16.40;99.90;;;;;;4810215;29;20767;-63
2023/08/17 05:10:54;;;;;;;3.15;1.50;;;16.40;99.90;;;;;;4821190;29;20060;-64
2023/08/17 05:13:21;;;;;;;1.65;1.55;;;16.50;99.90;;;;;;4821453;29;20097;-65
2023/08/17 05:15:48;;;;;;;1.90;1.42;;;16.50;99.90;;;;;;4827852;29;20510;-66
2023/08/17 05:18:15;;;;;;;3.13;1.85;;;16.50;99.90;;;;;;4820673;29;20046;-65
2023/08/17 05:20:43;;;;;;;3.53;1.92;;;16.50;99.90;;;;;;4823677;29;20064;-61
2023/08/17 05:23:10;;;;;;;2.65;2.40;;;16.50;99.90;;;;;;4824301;29;20050;-64
2023/08/17 05:25:37;;;;;;;5.78;1.85;;;16.50;99.90;;;;;;4821295;29;20053;-62
2023/08/17 05:28:05;;;;;;;2.30;1.90;;;16.50;99.90;;;;;;4824265;29;20510;-64
2023/08/17 05:30:33;;;;;;;1.95;1.35;;;16.50;99.90;;;;;;4821996;29;20396;-67
2023/08/17 05:33:00;;;;;;;2.33;1.70;;;16.50;99.90;;;;;;4805430;29;20148;-65
2023/08/17 05:35:27;;;;;;;6.03;2.25;;;16.50;99.90;;;;;;4813607;29;20525;-66
2023/08/17 05:37:54;;;;;;;5.07;1.95;;;16.50;99.90;;;;;;4822574;29;20077;-61
2023/08/17 05:40:21;;;;;;;2.15;1.73;;;16.60;99.90;;;;;;4821789;29;20057;-65
2023/08/17 05:42:47;;;;;;;6.03;2.05;;;16.50;99.90;;;;;;4828909;29;20048;-66
2023/08/17 05:45:14;;;;;;;2.17;2.03;;;16.60;99.90;;;;;;4829774;29;20126;-64
2023/08/17 05:47:41;;;;;;;4.97;2.35;;;16.60;99.90;;;;;;4831151;29;20587;-65
2023/08/17 05:50:08;;;;;;;2.00;1.90;;;16.70;99.90;;;;;;4824236;29;20061;-67
2023/08/17 05:52:35;;;;;;;3.05;1.95;;;16.70;99.90;;;;;;4825031;29;20077;-67
2023/08/17 05:55:02;;;;;;;8.52;2.22;;;16.70;99.90;;;;;;4827757;29;20057;-60
2023/08/17 05:57:29;;;;;;;4.82;1.85;;;16.80;99.90;;;;;;4822527;29;20053;-68
2023/08/17 05:59:56;;;;;;;3.25;2.13;;;16.70;99.90;;;;;;4824402;29;20127;-62
2023/08/17 06:02:23;;;;;;;5.45;3.10;;;16.80;99.90;;;;;;4823217;29;20092;-68
2023/08/17 06:04:50;;;;;;;3.25;1.77;;;16.80;99.90;;;;;;4829182;29;20046;-64
2023/08/17 06:07:17;;;;;;;1.92;1.70;;;16.90;99.90;;;;;;4825591;29;20062;-63
2023/08/17 06:09:44;;;;;;;3.78;2.25;;;17.00;99.90;;;;;;4824284;29;20042;-61
2023/08/17 06:12:11;;;;;;;1.85;1.55;;;17.00;99.90;;;;;;4823893;29;20062;-67
2023/08/17 06:14:37;;;;;;;3.45;1.80;;;17.00;99.90;;;;;;4826164;29;20154;-63
2023/08/17 06:17:05;;;;;;;7.65;2.00;;;17.00;99.90;;;;;;4826251;29;20146;-69
2023/08/17 06:19:33;;;;;;;7.05;3.20;;;17.00;99.90;;;;;;4824002;29;20612;-68
2023/08/17 06:22:00;;;;;;;2.60;2.40;;;17.00;99.90;;;;;;4827850;29;20106;-67
2023/08/17 06:24:26;;;;;;;1.98;1.83;;;17.10;99.90;;;;;;4823695;29;20047;-65
2023/08/17 06:26:53;;;;;;;2.65;1.95;;;17.10;99.90;;;;;;4827221;29;20073;-68
2023/08/17 06:29:20;;;;;;;5.13;2.28;;;17.10;99.90;;;;;;4823679;29;20993;-67
2023/08/17 06:31:47;;;;;;;2.30;2.10;;;17.10;99.90;;;;;;4826278;29;20081;-66
2023/08/17 06:34:15;;;;;;;4.13;3.40;;;17.10;99.90;;;;;;4825740;29;20509;-66
2023/08/17 06:36:41;;;;;;;3.72;2.53;;;17.00;99.90;;;;;;4826027;29;20038;-68
2023/08/17 06:39:08;;;;;;;2.45;1.58;;;17.00;99.90;;;;;;4823593;29;20374;-68
2023/08/17 06:41:36;;;;;;;4.68;2.35;;;17.00;99.90;;;;;;4825844;29;20271;-63
2023/08/17 06:44:03;;;;;;;2.03;1.40;;;17.10;99.90;;;;;;4828052;29;20694;-72
2023/08/17 06:46:29;;;;;;;2.53;1.90;;;17.10;99.90;;;;;;4826970;29;20106;-62
2023/08/17 06:48:56;;;;;;;4.13;2.13;;;17.10;99.90;;;;;;4828676;29;20077;-61
2023/08/17 06:51:23;;;;;;;3.33;1.67;;;17.10;99.90;;;;;;4824980;29;20062;-65
2023/08/17 06:53:50;;;;;;;2.85;2.22;;;17.10;99.90;;;;;;4819685;29;20137;-62
2023/08/17 06:56:17;;;;;;;5.45;2.45;;;17.10;99.90;;;;;;4829175;29;20416;-69
2023/08/17 06:58:44;;;;;;;3.30;1.63;;;17.20;99.90;;;;;;4826892;29;20139;-62
2023/08/17 07:01:11;;;;;;;3.40;2.00;;;17.20;99.90;;;;;;4825580;29;20130;-69
2023/08/17 07:03:38;;;;;;;4.07;1.80;;;17.10;99.90;;;;;;4826828;29;20493;-71
2023/08/17 07:06:05;;;;;;;2.95;2.65;;;17.10;99.90;;;;;;4827010;29;20066;-65
2023/08/17 07:08:32;;;;;;;4.68;2.25;;;17.10;99.90;;;;;;4828687;29;20061;-64
2023/08/17 07:10:59;;;;;;;3.40;3.08;;;17.20;99.90;;;;;;4822883;29;20299;-65
2023/08/17 07:13:26;;;;;;;5.28;2.65;;;17.20;99.90;;;;;;4826015;29;20058;-69
2023/08/17 07:15:53;;;;;;;3.28;1.98;;;17.20;99.90;;;;;;4822942;29;20057;-61
2023/08/17 07:18:20;;;;;;;2.38;1.95;;;17.30;99.90;;;;;;4825746;29;20042;-64
2023/08/17 07:20:49;;;;;;;4.97;2.30;;;17.20;99.90;;;;;;4822302;29;20134;-62
2023/08/17 07:23:16;;;;;;;1.88;1.77;;;17.30;99.90;;;;;;4828575;29;20068;-63
2023/08/17 07:25:44;;;;;;;4.82;2.42;;;17.30;99.90;;;;;;4826933;29;20049;-70
2023/08/17 07:28:11;;;;;;;3.70;2.70;;;17.30;99.90;;;;;;4825818;29;20151;-61
2023/08/17 07:30:37;;;;;;;6.13;2.75;;;17.30;99.90;;;;;;4825908;29;20459;-61
2023/08/17 07:33:04;;;;;;;1.85;1.70;;;17.30;99.90;;;;;;4825811;29;20509;-66
2023/08/17 07:35:31;;;;;;;2.10;1.92;;;17.30;99.90;;;;;;4824598;29;20058;-64
2023/08/17 07:37:59;;;;;;;3.03;2.22;;;17.30;99.90;;;;;;4829800;29;20576;-60
2023/08/17 07:40:35;;;;;;;5.95;2.60;;;17.40;99.90;;;;;;4826872;29;20106;-64
2023/08/17 07:43:02;;;;;;;3.05;2.03;;;17.40;99.90;;;;;;4823428;29;20054;-68
2023/08/17 07:45:29;;;;;;;3.95;2.20;;;17.40;99.90;;;;;;4824285;29;20057;-65
2023/08/17 07:47:56;;;;;;;6.25;2.15;;;17.40;99.90;;;;;;4827892;29;20153;-65
2023/08/17 07:50:23;;;;;;;3.00;2.15;;;17.50;99.90;;;;;;4825523;29;20058;-65
2023/08/17 07:52:50;;;;;;;1.95;1.83;;;17.50;99.90;;;;;;4823346;29;20054;-63
2023/08/17 07:55:17;;;;;;;4.38;2.30;;;17.60;99.90;;;;;;4827678;29;20640;-65
2023/08/17 07:57:44;;;;;;;2.60;2.10;;;17.60;99.90;;;;;;4827134;29;20106;-65
2023/08/17 08:00:11;;;;;;;3.65;2.42;;;17.60;99.90;;;;;;4823394;29;20081;-61
2023/08/17 08:02:38;;;;;;;2.83;2.63;;;17.60;99.90;;;;;;4824750;29;20139;-68
2023/08/17 08:05:05;;;;;;;3.35;2.35;;;17.60;99.90;;;;;;4828552;29;20048;-62
2023/08/17 08:07:33;;;;;;;2.67;2.45;;;17.70;99.90;;;;;;4824475;29;20119;-65
2023/08/17 08:09:59;;;;;;;3.65;1.60;;;17.70;99.90;;;;;;4823964;29;20136;-63
2023/08/17 08:12:26;;;;;;;2.35;1.80;;;17.70;99.90;;;;;;4826521;29;20074;-62
2023/08/17 08:14:53;;;;;;;3.15;2.88;;;17.80;99.90;;;;;;4826898;29;20129;-66
2023/08/17 08:17:20;;;;;;;4.50;2.25;;;17.70;99.90;;;;;;4828519;29;20209;-64
2023/08/17 08:19:47;;;;;;;2.35;2.15;;;17.70;99.90;;;;;;4825189;29;20111;-65
2023/08/17 08:22:14;;;;;;;3.83;3.53;;;17.70;99.90;;;;;;4825936;29;20065;-69
2023/08/17 08:24:41;;;;;;;2.95;2.42;;;17.70;99.90;;;;;;4827311;29;20122;-67
2023/08/17 08:27:10;;;;;;;3.90;2.73;;;17.80;99.90;;;;;;4824896;29;20042;-61
2023/08/17 08:29:37;;;;;;;2.53;2.30;;;17.90;99.90;;;;;;4823902;29;20137;-64
2023/08/17 08:32:04;;;;;;;6.68;3.20;;;17.90;99.90;;;;;;4825914;29;20046;-68
2023/08/17 08:34:31;;;;;;;6.28;2.70;;;17.90;99.90;;;;;;4809708;29;20571;-66
2023/08/17 08:36:58;;;;;;;5.63;2.45;;;17.90;99.90;;;;;;4826310;29;20134;-61
2023/08/17 08:39:26;;;;;;;2.67;2.47;;;17.80;99.90;;;;;;4824097;29;20054;-64
2023/08/17 08:41:53;;;;;;;3.60;2.47;;;17.70;99.90;;;;;;4823448;29;20115;-68
2023/08/17 08:44:20;;;;;;;4.15;2.53;;;17.70;99.90;;;;;;4825450;29;20562;-62
2023/08/17 08:46:48;;;;;;;5.57;3.17;;;17.80;99.90;;;;;;4827848;29;20045;-66
2023/08/17 08:49:22;;;;;;;2.72;2.47;;;17.90;99.90;;;;;;4819799;29;20832;-66
2023/08/17 08:51:52;;;;;;;4.18;2.95;;;18.00;99.90;;;;;;4826234;29;20316;-61
2023/08/17 08:54:24;;;;;;;2.05;1.85;;;18.00;99.90;;;;;;4827844;29;20034;-66
2023/08/17 08:56:59;;;;;;;2.55;2.03;;;18.10;99.90;;;;;;4823229;29;20089;-64
2023/08/17 08:59:28;;;;;;;2.35;2.13;;;18.10;99.90;;;;;;4810108;29;20054;-68
2023/08/17 09:01:58;;;;;;;5.35;2.42;;;18.00;99.90;;;;;;4827282;29;20077;-65
2023/08/17 09:04:25;;;;;;;;;;;18.00;99.90;;;;;;4828300;29;20466;-62
2023/08/17 09:06:55;;;;;;;3.78;2.90;;;18.00;99.90;;;;;;4830157;29;19936;-63
2023/08/17 09:09:22;;;;;;;5.95;2.92;;;18.00;99.90;;;;;;4823466;29;20050;-61
2023/08/17 09:11:56;;;;;;;3.10;2.15;;;18.10;99.90;;;;;;4823481;29;20069;-65
2023/08/17 09:14:23;;;;;;;5.13;2.67;;;18.10;99.90;;;;;;4817923;29;20518;-62
2023/08/17 09:16:49;;;;;;;6.18;2.45;;;18.20;99.90;;;;;;4825609;29;20539;-63
2023/08/17 09:19:18;;;;;;;4.07;2.40;;;18.20;99.90;;;;;;4827272;29;20050;-63
2023/08/17 09:21:45;;;;;;;3.08;2.42;;;18.20;99.90;;;;;;4823682;29;21360;-60
2023/08/17 09:24:16;;;;;;;3.58;2.10;;;18.30;99.90;;;;;;4822981;29;20046;-63
2023/08/17 09:26:43;;;;;;;2.42;1.48;;;18.40;99.90;;;;;;4825511;29;20085;-65
2023/08/17 09:29:18;;;;;;;6.55;2.47;;;18.60;99.90;;;;;;4824593;29;20730;-61
2023/08/17 09:31:48;;;;;;;5.63;2.33;;;18.50;99.90;;;;;;4820884;29;20038;-62
2023/08/17 09:34:16;;;;;;;2.53;2.30;;;18.60;99.90;;;;;;4826459;29;20062;-66
2023/08/17 09:36:46;;;;;;;3.85;2.63;;;18.40;99.90;;;;;;4822658;29;20134;-65
2023/08/17 09:39:15;;;;;;;2.75;1.98;;;18.50;99.90;;;;;;4824690;29;20082;-63
2023/08/17 09:41:42;;;;;;;4.15;2.10;;;18.60;99.90;;;;;;4824679;29;20042;-63
2023/08/17 09:44:11;;;;;;;2.45;2.08;;;18.70;99.90;;;;;;4823502;29;20050;-61
2023/08/17 09:46:38;;;;;;;3.38;2.15;;;18.80;99.90;;;;;;4823844;29;20038;-67
2023/08/17 09:49:06;;;;;;;2.90;2.25;;;18.80;99.90;;;;;;4821832;29;20069;-67
2023/08/17 09:51:33;;;;;;;3.20;2.08;;;18.90;99.90;;;;;;4825071;29;20161;-64
2023/08/17 09:54:00;;;;;;;3.30;2.65;;;18.80;99.90;;;;;;4825134;29;20085;-65
2023/08/17 09:56:31;;;;;;;5.43;2.83;;;18.60;99.90;;;;;;4822955;29;20057;-62
2023/08/17 09:58:58;;;;;;;11.55;2.83;;;18.70;99.90;;;;;;4823705;29;20046;-63
2023/08/17 10:01:27;;;;;;;4.35;2.03;;;18.80;99.90;;;;;;4823277;29;20046;-68
2023/08/17 10:03:56;;;;;;;4.18;2.65;;;18.80;99.90;;;;;;4824161;29;20046;-68
2023/08/17 10:06:26;;;;;;;3.40;2.75;;;18.90;99.90;;;;;;4824120;29;20054;-65
2023/08/17 10:08:56;;;;;;;4.20;2.53;;;18.90;99.90;;;;;;4827022;29;20162;-65
2023/08/17 10:11:26;;;;;;;3.80;2.53;;;18.90;99.90;;;;;;4819195;29;20062;-64
2023/08/17 10:13:59;;;;;;;4.00;2.40;;;19.00;99.90;;;;;;4823740;29;20524;-68
2023/08/17 10:16:36;;;;;;;3.88;2.72;;;19.10;99.90;;;;;;4826603;29;20052;-64
2023/08/17 10:19:13;;;;;;;3.08;2.78;;;19.10;99.90;;;;;;4824373;29;20060;-64
2023/08/17 10:22:12;;;;;;;5.65;3.08;;;19.00;99.90;;;;;;4820642;29;20042;-60
2023/08/17 10:24:46;;;;;;;3.28;2.40;;;19.00;99.90;;;;;;4826732;29;20126;-64
2023/08/17 10:27:13;;;;;;;2.90;2.60;;;19.10;99.90;;;;;;4825887;29;20467;-70
2023/08/17 10:29:41;;;;;;;2.40;1.98;;;19.30;99.90;;;;;;4824881;29;20126;-66
2023/08/17 10:32:08;;;;;;;3.38;2.10;;;19.30;99.90;;;;;;4826115;29;20050;-67
2023/08/17 10:34:36;;;;;;;2.53;2.10;;;19.30;99.90;;;;;;4830126;29;20079;-64
2023/08/17 10:37:04;;;;;;;2.60;2.17;;;19.30;99.90;;;;;;4828737;29;20386;-63
2023/08/17 10:39:31;;;;;;;4.50;3.03;;;19.40;99.90;;;;;;4830961;29;20082;-66
2023/08/17 10:41:58;;;;;;;8.43;4.10;;;19.30;99.90;;;;;;4826899;29;20042;-65
2023/08/17 10:44:42;;;;;;;3.60;2.72;;;19.40;99.90;;;;;;4829285;29;20895;-66
2023/08/17 10:47:30;;;;;;;2.70;2.50;;;19.50;99.90;;;;;;4816200;29;20461;-64
2023/08/17 10:50:20;;;;;;;3.85;1.90;;;19.40;99.90;;;;;;4826935;29;20659;-62
2023/08/17 10:52:49;;;;;;;4.20;3.80;;;19.40;99.90;;;;;;4826275;29;20050;-64
2023/08/17 10:55:18;;;;;;;3.25;2.25;;;19.50;99.90;;;;;;4827303;29;20563;-63
2023/08/17 10:57:45;;;;;;;5.20;4.70;;;19.50;99.90;;;;;;4826525;29;20746;-61
2023/08/17 11:00:26;;;;;;;3.17;2.88;;;19.50;99.90;;;;;;4825091;29;20115;-71
2023/08/17 11:02:59;;;;;;;2.75;2.55;;;19.40;99.90;;;;;;4826413;29;20809;-63
2023/08/17 11:05:42;;;;;;;5.35;2.80;;;19.40;99.90;;;;;;4827750;29;20076;-68
2023/08/17 11:08:33;;;;;;;3.03;2.20;;;19.60;99.90;;;;;;4822402;29;20347;-64
2023/08/17 11:11:15;;;;;;;3.05;2.63;;;19.60;99.90;;;;;;4829899;29;20695;-64
2023/08/17 11:13:44;;;;;;;4.00;3.08;;;19.60;99.90;;;;;;4830148;29;20041;-67
2023/08/17 11:16:14;;;;;;;3.47;2.67;;;19.70;99.90;;;;;;4827705;29;20053;-62
2023/08/17 11:18:45;;;;;;;3.55;2.47;;;19.80;99.90;;;;;;4822671;29;20089;-63
2023/08/17 11:21:12;;;;;;;2.72;2.50;;;20.00;99.90;;;;;;4825051;29;20676;-63
2023/08/17 11:23:45;;;;;;;5.18;2.35;;;19.90;99.90;;;;;;4826474;29;20046;-63
2023/08/17 11:26:16;;;;;;;3.13;2.65;;;19.80;99.90;;;;;;4821062;29;20164;-61
2023/08/17 11:28:44;;;;;;;2.72;2.20;;;19.70;99.90;;;;;;4827069;29;20050;-65
2023/08/17 11:31:14;;;;;;;4.78;2.83;;;19.60;99.90;;;;;;4823906;29;20114;-65
2023/08/17 11:33:41;;;;;;;6.30;2.80;;;19.70;99.90;;;;;;4824651;29;20135;-65
2023/08/17 11:36:09;;;;;;;5.82;2.83;;;19.80;99.90;;;;;;4825857;29;20045;-64
2023/08/17 11:38:42;;;;;;;3.70;2.58;;;19.80;99.90;;;;;;4824403;29;20050;-69
2023/08/17 11:41:10;;;;;;;3.53;3.22;;;19.70;99.90;;;;;;4827492;29;20506;-69
2023/08/17 11:43:45;;;;;;;3.92;3.38;;;19.70;99.90;;;;;;4823165;29;20046;-63
2023/08/17 11:46:12;;;;;;;3.83;2.55;;;19.70;99.90;;;;;;4825526;29;20046;-65
2023/08/17 11:48:39;;;;;;;3.63;2.58;;;19.80;99.90;;;;;;4822414;29;20170;-66
2023/08/17 11:51:06;;;;;;;2.72;2.50;;;20.00;99.90;;;;;;4824560;29;20517;-64
2023/08/17 11:53:38;;;;;;;4.68;2.75;;;19.90;99.90;;;;;;4827406;29;20042;-62
2023/08/17 11:56:06;;;;;;;3.25;2.75;;;20.00;99.90;;;;;;4830374;29;20425;-64
2023/08/17 11:58:45;;;;;;;2.92;2.50;;;20.00;99.90;;;;;;4823893;29;20531;-70
2023/08/17 12:01:15;;;;;;;2.60;2.40;;;19.90;99.90;;;;;;4822496;29;20038;-66
2023/08/17 12:03:43;;;;;;;4.47;2.65;;;19.90;99.90;;;;;;4827256;29;20050;-61
2023/08/17 12:06:12;;;;;;;7.65;3.25;;;20.00;99.90;;;;;;4825260;29;20125;-65
2023/08/17 12:08:47;;;;;;;3.50;2.75;;;20.10;99.90;;;;;;4830914;29;20113;-68
2023/08/17 12:11:17;;;;;;;4.10;2.90;;;20.20;99.90;;;;;;4824193;29;20089;-64
2023/08/17 12:13:50;;;;;;;3.73;2.30;;;20.20;99.90;;;;;;4826866;29;20077;-62
2023/08/17 12:16:18;;;;;;;4.47;2.65;;;20.20;99.90;;;;;;4824834;29;20628;-66
2023/08/17 12:18:49;;;;;;;5.50;3.17;;;19.90;99.90;;;;;;4825449;29;20511;-64
2023/08/17 12:21:16;;;;;;;5.18;2.20;;;19.90;99.90;;;;;;4827353;29;20542;-66
2023/08/17 12:23:43;;;;;;;5.80;2.65;;;19.80;99.90;;;;;;4810467;29;20077;-67
2023/08/17 12:26:17;;;;;;;4.03;2.85;;;19.80;99.90;;;;;;4823895;29;20450;-60
2023/08/17 12:28:44;;;;;;;6.60;3.75;;;19.80;99.90;;;;;;4823466;29;20109;-65
2023/08/17 12:31:11;;;;;;;4.47;2.60;;;19.90;99.90;;;;;;4821953;29;20052;-67
2023/08/17 12:33:38;;;;;;;5.45;2.67;;;20.00;99.90;;;;;;4820654;29;20161;-62
2023/08/17 12:36:06;;;;;;;2.30;2.10;;;20.10;99.90;;;;;;4825075;29;20106;-63
2023/08/17 12:38:33;;;;;;;3.50;2.90;;;20.10;99.90;;;;;;4824444;29;20133;-64
2023/08/17 12:41:00;;;;;;;5.57;2.72;;;20.00;99.90;;;;;;4824230;29;20106;-64
2023/08/17 12:43:32;;;;;;;3.47;2.53;;;20.10;99.90;;;;;;4822928;29;20041;-67
2023/08/17 12:45:59;;;;;;;3.00;2.80;;;20.10;99.90;;;;;;4825934;29;20041;-71
2023/08/17 12:48:26;;;;;;;4.28;2.83;;;20.10;99.90;;;;;;4819559;29;20048;-64
2023/08/17 12:50:53;;;;;;;5.05;2.83;;;20.00;99.90;;;;;;4826072;29;20046;-65
2023/08/17 12:53:20;;;;;;;3.17;2.80;;;20.20;99.90;;;;;;4829960;29;20078;-64
2023/08/17 12:55:47;;;;;;;4.15;3.10;;;20.30;99.90;;;;;;4823087;29;20061;-68